createdAt,value
2023-05-14T18:40:30.129Z,2.34
2023-05-14T18:42:57.218Z,2.18
2023-05-14T18:45:24.598Z,2.11
2023-05-14T18:47:52.052Z,2.25
2023-05-14T18:50:19.738Z,2.08
2023-05-14T18:52:46.894Z,2.27
2023-05-14T18:55:14.360Z,2.04
2023-05-14T18:57:42.911Z,1.85
2023-05-14T19:00:11.493Z,1.65
2023-05-14T19:02:38.948Z,1.72
2023-05-14T19:05:06.989Z,1.63
2023-05-14T19:07:34.362Z,1.66
2023-05-14T19:10:01.737Z,1.67
2023-05-14T19:12:29.095Z,1.59
2023-05-14T19:14:57.634Z,1.69
2023-05-14T19:17:24.869Z,1.82
2023-05-14T19:19:52.072Z,1.79
2023-05-14T19:22:19.800Z,1.76
2023-05-14T19:24:46.983Z,1.64
2023-05-14T19:27:14.106Z,1.78
2023-05-14T19:29:41.152Z,1.58
2023-05-14T19:32:09.903Z,1.38
2023-05-14T19:34:37.073Z,1.37
2023-05-14T19:37:04.596Z,1.28
2023-05-14T19:39:31.808Z,1.24
2023-05-14T19:41:59.082Z,1.13
2023-05-14T19:44:26.366Z,1.61
2023-05-14T19:46:59.327Z,2.44
2023-05-14T19:49:28.046Z,2.06
2023-05-14T19:51:55.177Z,1.68
2023-05-14T19:54:22.381Z,1.55
2023-05-14T19:56:49.666Z,1.47
2023-05-14T19:59:16.825Z,1.74
2023-05-14T20:01:44.172Z,1.70
2023-05-14T20:04:11.425Z,1.81
2023-05-14T20:06:40.026Z,1.83
2023-05-14T20:09:07.386Z,2.04
2023-05-14T20:11:35.588Z,2.12
2023-05-14T20:14:02.790Z,2.62
2023-05-14T20:16:30.199Z,3.06
2023-05-14T20:18:57.516Z,2.67
2023-05-14T20:21:24.808Z,2.22
2023-05-14T20:23:53.929Z,2.15
2023-05-14T20:26:21.332Z,3.11
2023-05-14T20:28:48.465Z,2.89
2023-05-14T20:31:15.650Z,2.35
2023-05-14T20:33:42.902Z,2.30
